createdAt,value
2019-03-20T00:00:35.659Z,60.80
2019-03-20T00:03:05.785Z,60.90
2019-03-20T00:05:35.744Z,60.60
2019-03-20T00:08:05.782Z,60.80
2019-03-20T00:10:35.838Z,60.80
2019-03-20T00:13:05.716Z,60.90
2019-03-20T00:15:35.426Z,61.00
2019-03-20T00:18:05.291Z,60.90
2019-03-20T00:20:34.924Z,61.00
2019-03-20T00:23:04.866Z,60.90
2019-03-20T00:25:34.684Z,61.00
2019-03-20T00:28:04.609Z,60.90
2019-03-20T00:30:34.272Z,61.00
2019-03-20T00:33:04.149Z,60.90
2019-03-20T00:35:34.082Z,60.90
2019-03-20T00:38:03.980Z,60.90
2019-03-20T00:40:33.578Z,60.90
2019-03-20T00:43:03.239Z,60.90
2019-03-20T00:45:32.922Z,60.90
2019-03-20T00:48:02.568Z,60.80
2019-03-20T00:50:32.237Z,60.80
2019-03-20T00:53:01.958Z,60.70
2019-03-20T00:55:31.647Z,60.70
2019-03-20T00:58:01.399Z,60.60
2019-03-20T01:00:31.217Z,60.60
2019-03-20T01:03:01.077Z,60.60
2019-03-20T01:05:30.918Z,60.60
2019-03-20T01:08:00.708Z,60.60
2019-03-20T01:10:30.766Z,60.60
2019-03-20T01:13:00.428Z,60.60
2019-03-20T01:15:30.188Z,60.60
2019-03-20T01:17:59.959Z,60.60
2019-03-20T01:20:29.905Z,60.60
2019-03-20T01:22:59.703Z,60.60
2019-03-20T01:25:29.916Z,60.70
2019-03-20T01:27:59.668Z,60.70
2019-03-20T01:30:34.223Z,61.60
2019-03-20T01:33:07.525Z,60.70
2019-03-20T01:35:37.639Z,60.70
2019-03-20T01:38:08.757Z,60.80
2019-03-20T01:40:40.228Z,60.80
2019-03-20T01:43:10.356Z,60.90
2019-03-20T01:45:40.382Z,60.90
2019-03-20T01:48:10.217Z,61.00
2019-03-20T01:50:40.033Z,61.10
2019-03-20T01:53:09.824Z,61.10
2019-03-20T01:55:39.626Z,62.00
2019-03-20T01:58:09.426Z,61.20
2019-03-20T02:00:39.649Z,61.20
2019-03-20T02:03:09.359Z,61.20
2019-03-20T02:05:39.039Z,61.40
2019-03-20T02:08:08.803Z,61.50
2019-03-20T02:10:38.555Z,61.40
2019-03-20T02:13:08.197Z,61.50
2019-03-20T02:15:39.672Z,61.60
2019-03-20T02:18:09.261Z,61.60
2019-03-20T02:20:39.200Z,61.70
2019-03-20T02:23:09.160Z,61.80
2019-03-20T02:25:38.947Z,61.80
2019-03-20T02:28:08.600Z,61.90
2019-03-20T02:30:38.307Z,62.00
2019-03-20T02:33:07.980Z,62.10
2019-03-20T02:35:50.746Z,62.10
2019-03-20T02:38:09.158Z,62.10
2019-03-20T02:40:38.892Z,62.10
2019-03-20T02:43:08.636Z,62.20
2019-03-20T02:45:38.615Z,62.30
2019-03-20T02:48:08.205Z,62.30
2019-03-20T02:50:37.931Z,62.30
2019-03-20T02:53:07.685Z,62.30
2019-03-20T02:55:37.406Z,62.30
2019-03-20T02:58:07.339Z,62.40
2019-03-20T03:00:37.035Z,62.70
2019-03-20T03:03:06.796Z,62.40
2019-03-20T03:05:36.629Z,62.60
2019-03-20T03:08:06.511Z,62.50
2019-03-20T03:10:36.243Z,62.60
2019-03-20T03:13:06.002Z,62.60
2019-03-20T03:21:43.617Z,62.60
2019-03-20T03:24:13.428Z,62.50
2019-03-20T03:26:43.092Z,62.60
2019-03-20T03:29:13.174Z,62.60
2019-03-20T03:31:42.986Z,62.60
2019-03-20T03:34:12.665Z,62.70
2019-03-20T03:36:42.317Z,62.90
2019-03-20T03:39:12.312Z,63.00
2019-03-20T03:41:42.067Z,63.20
2019-03-20T03:44:12.070Z,63.40
2019-03-20T03:46:41.693Z,63.60
2019-03-20T03:49:11.384Z,63.90
2019-03-20T03:51:41.063Z,64.00
2019-03-20T03:54:10.843Z,64.20
2019-03-20T03:56:40.601Z,64.30
2019-03-20T03:59:10.861Z,64.50
2019-03-20T04:01:40.722Z,64.60
2019-03-20T04:04:10.618Z,64.70
2019-03-20T04:06:40.322Z,64.80
2019-03-20T04:09:10.080Z,64.90
2019-03-20T04:11:39.953Z,64.90
2019-03-20T04:14:09.765Z,65.10
2019-03-20T04:16:47.654Z,65.20
2019-03-20T04:19:16.981Z,65.20
2019-03-20T04:21:48.404Z,65.40
2019-03-20T04:24:18.413Z,65.50
2019-03-20T04:26:48.007Z,65.70
2019-03-20T04:29:17.613Z,65.80
2019-03-20T04:31:47.572Z,65.80
2019-03-20T04:34:17.240Z,65.80
2019-03-20T04:36:48.230Z,66.00
2019-03-20T04:39:18.075Z,66.10
2019-03-20T04:41:47.762Z,66.10
2019-03-20T04:44:17.713Z,66.20
2019-03-20T04:46:47.491Z,66.00
2019-03-20T04:49:17.134Z,66.20
2019-03-20T04:51:46.812Z,66.30
2019-03-20T04:54:16.520Z,66.30
2019-03-20T04:56:46.288Z,66.30
2019-03-20T04:59:15.924Z,66.30
2019-03-20T05:01:45.598Z,66.40
2019-03-20T05:04:15.207Z,66.50
2019-03-20T05:06:44.947Z,66.50
2019-03-20T05:09:14.993Z,66.50
2019-03-20T05:11:44.942Z,66.50
2019-03-20T05:14:14.617Z,66.50
2019-03-20T05:16:44.289Z,66.40
2019-03-20T05:19:14.065Z,66.50
2019-03-20T05:21:44.011Z,66.50
2019-03-20T05:24:13.620Z,66.60
2019-03-20T05:26:43.336Z,66.60
2019-03-20T05:29:13.077Z,66.60
2019-03-20T05:31:42.704Z,66.60
2019-03-20T05:34:13.333Z,66.70
2019-03-20T05:36:42.978Z,66.70
2019-03-20T05:39:12.654Z,66.70
2019-03-20T05:41:42.657Z,66.70
2019-03-20T05:44:12.289Z,66.70
2019-03-20T05:46:42.052Z,66.80
2019-03-20T05:49:11.968Z,66.80
2019-03-20T05:51:42.007Z,66.90
2019-03-20T05:54:12.060Z,67.00
2019-03-20T05:56:41.744Z,66.90
2019-03-20T05:59:11.380Z,66.80
2019-03-20T06:01:41.393Z,66.80
2019-03-20T06:04:11.114Z,66.90
2019-03-20T06:06:41.571Z,67.00
2019-03-20T06:09:11.249Z,67.00
2019-03-20T06:11:40.993Z,67.00
2019-03-20T06:14:10.752Z,66.90
2019-03-20T06:16:40.571Z,67.10
2019-03-20T06:19:10.549Z,67.10
2019-03-20T06:21:40.237Z,67.20
2019-03-20T06:24:10.225Z,67.30
2019-03-20T06:26:39.845Z,67.40
2019-03-20T06:29:10.798Z,67.30
2019-03-20T06:31:41.149Z,67.30
2019-03-20T06:34:10.920Z,67.30
2019-03-20T06:36:40.731Z,67.30
2019-03-20T06:39:10.832Z,67.30
2019-03-20T06:41:40.735Z,67.30
2019-03-20T06:44:10.366Z,67.30
2019-03-20T06:46:39.999Z,67.30
2019-03-20T06:49:09.849Z,67.40
2019-03-20T06:51:39.643Z,67.40
2019-03-20T06:54:09.270Z,67.40
2019-03-20T06:56:39.263Z,67.50
2019-03-20T06:59:31.276Z,67.40
2019-03-20T07:02:04.832Z,67.20
2019-03-20T07:05:18.465Z,67.10
2019-03-20T07:07:48.089Z,67.00
2019-03-20T07:10:31.143Z,66.80
2019-03-20T07:13:01.832Z,66.80
2019-03-20T07:15:31.776Z,66.60
2019-03-20T07:18:01.519Z,66.60
2019-03-20T07:20:31.196Z,66.50
2019-03-20T07:23:00.904Z,66.40
2019-03-20T07:25:30.512Z,66.30
2019-03-20T07:28:00.141Z,66.20
2019-03-20T07:30:29.775Z,66.20
2019-03-20T07:32:59.432Z,66.10
2019-03-20T07:35:29.100Z,66.10
2019-03-20T07:37:59.007Z,66.00
2019-03-20T07:40:28.644Z,66.10
2019-03-20T07:43:08.327Z,66.00
2019-03-20T07:45:29.754Z,65.90
2019-03-20T07:47:59.449Z,65.80
2019-03-20T07:50:29.087Z,65.80
2019-03-20T07:52:58.761Z,65.70
2019-03-20T07:55:28.425Z,65.60
2019-03-20T07:57:58.522Z,65.40
2019-03-20T08:00:28.137Z,65.40
2019-03-20T08:02:58.064Z,65.30
2019-03-20T08:05:31.226Z,65.10
2019-03-20T08:08:07.181Z,65.60
2019-03-20T08:10:32.566Z,64.70
2019-03-20T08:13:02.622Z,64.50
2019-03-20T08:15:32.341Z,64.30
2019-03-20T08:18:02.106Z,64.20
2019-03-20T08:20:32.632Z,64.10
2019-03-20T08:23:02.286Z,64.10
2019-03-20T08:25:31.979Z,64.10
2019-03-20T08:28:01.661Z,64.20
2019-03-20T08:30:31.580Z,64.80
2019-03-20T08:33:01.557Z,64.10
2019-03-20T08:35:31.346Z,64.00
2019-03-20T08:38:01.032Z,63.80
2019-03-20T08:40:30.772Z,63.60
2019-03-20T08:43:00.411Z,63.30
2019-03-20T08:45:30.106Z,63.10
2019-03-20T08:47:59.821Z,63.10
2019-03-20T08:50:29.524Z,63.00
2019-03-20T08:52:59.144Z,63.10
2019-03-20T08:55:32.313Z,62.90
2019-03-20T08:58:02.444Z,62.60
2019-03-20T09:00:32.157Z,62.30
2019-03-20T09:03:02.152Z,62.10
2019-03-20T09:05:31.895Z,61.80
2019-03-20T09:08:01.556Z,61.60
2019-03-20T09:10:31.217Z,61.40
2019-03-20T09:13:00.873Z,62.10
2019-03-20T09:15:30.554Z,61.10
2019-03-20T09:18:00.302Z,60.90
2019-03-20T09:20:29.929Z,60.80
2019-03-20T09:22:59.569Z,60.90
2019-03-20T09:25:29.322Z,60.90
2019-03-20T09:27:59.187Z,60.90
2019-03-20T09:30:30.828Z,60.80
2019-03-20T09:33:00.873Z,60.80
2019-03-20T09:35:30.630Z,60.80
2019-03-20T09:38:00.257Z,60.70
2019-03-20T09:40:30.466Z,60.80
2019-03-20T09:43:00.092Z,60.70
2019-03-20T09:45:30.537Z,60.70
2019-03-20T09:48:00.170Z,60.60
2019-03-20T09:50:30.635Z,60.80
2019-03-20T09:53:00.379Z,60.90
2019-03-20T09:55:30.068Z,60.60
2019-03-20T09:57:59.868Z,60.60
2019-03-20T10:00:32.972Z,60.60
2019-03-20T10:03:02.759Z,60.70
2019-03-20T10:05:32.486Z,60.60
2019-03-20T10:08:02.274Z,60.50
2019-03-20T10:10:32.701Z,60.40
2019-03-20T10:13:02.494Z,60.40
2019-03-20T10:15:33.097Z,60.30
2019-03-20T10:18:03.065Z,60.30
2019-03-20T10:20:33.085Z,60.20
2019-03-20T10:23:02.702Z,60.10
2019-03-20T10:25:43.921Z,60.00
2019-03-20T10:28:08.889Z,59.90
2019-03-20T10:30:38.916Z,59.80
2019-03-20T10:33:08.893Z,59.80
2019-03-20T10:35:38.495Z,59.80
2019-03-20T10:38:08.169Z,59.80
2019-03-20T10:40:37.838Z,59.90
2019-03-20T10:43:07.540Z,60.00
2019-03-20T10:45:37.187Z,60.20
2019-03-20T10:48:06.806Z,60.20
2019-03-20T10:50:36.475Z,60.10
2019-03-20T10:53:06.203Z,60.20
2019-03-20T10:55:35.957Z,60.30
2019-03-20T10:58:05.969Z,60.20
2019-03-20T11:00:35.979Z,60.00
2019-03-20T11:03:05.914Z,59.90
2019-03-20T11:05:35.849Z,59.90
2019-03-20T11:08:05.613Z,59.90
2019-03-20T11:10:35.497Z,60.00
2019-03-20T11:13:05.316Z,59.50
2019-03-20T11:15:34.990Z,59.30
2019-03-20T11:18:04.814Z,59.20
2019-03-20T11:20:34.923Z,59.20
2019-03-20T11:23:06.680Z,59.10
2019-03-20T11:25:38.100Z,59.10
2019-03-20T11:28:10.987Z,59.20
2019-03-20T11:30:43.067Z,59.10
2019-03-20T11:33:17.918Z,59.00
2019-03-20T11:35:52.316Z,59.00
2019-03-20T11:38:25.532Z,58.90
2019-03-20T11:40:58.733Z,58.80
2019-03-20T11:43:30.603Z,58.50
2019-03-20T11:46:00.888Z,58.10
2019-03-20T11:48:33.398Z,57.90
2019-03-20T11:51:04.396Z,57.60
2019-03-20T11:53:34.751Z,57.50
2019-03-20T11:56:05.488Z,57.10
2019-03-20T11:58:36.218Z,56.80
2019-03-20T12:01:07.707Z,56.70
2019-03-20T12:03:39.485Z,56.40
2019-03-20T12:06:11.482Z,56.40
2019-03-20T12:08:45.540Z,56.20
2019-03-20T12:11:16.054Z,56.10
2019-03-20T12:13:47.343Z,56.00
2019-03-20T12:16:18.849Z,55.80
2019-03-20T12:18:50.586Z,55.90
2019-03-20T12:21:23.300Z,56.00
2019-03-20T12:23:57.136Z,55.70
2019-03-20T12:26:28.062Z,55.50
2019-03-20T12:29:00.687Z,55.20
2019-03-20T12:31:31.058Z,55.10
2019-03-20T12:34:02.264Z,55.10
2019-03-20T12:36:32.571Z,54.90
2019-03-20T12:39:07.208Z,54.80
2019-03-20T12:41:43.238Z,54.40
2019-03-20T12:44:16.652Z,54.40
2019-03-20T12:46:49.167Z,54.10
2019-03-20T12:49:20.111Z,53.70
2019-03-20T12:51:52.510Z,53.70
2019-03-20T12:54:26.449Z,53.60
2019-03-20T12:57:00.013Z,53.70
2019-03-20T12:59:32.809Z,53.60
2019-03-20T13:02:05.349Z,53.70
2019-03-20T13:04:38.903Z,53.90
2019-03-20T13:07:12.192Z,54.10
2019-03-20T13:09:45.928Z,54.30
2019-03-20T13:12:17.474Z,54.50
2019-03-20T13:14:47.336Z,54.60
2019-03-20T13:17:17.200Z,54.90
2019-03-20T13:19:46.872Z,55.00
2019-03-20T13:22:16.532Z,55.20
2019-03-20T13:24:46.210Z,55.10
2019-03-20T13:27:16.181Z,55.20
2019-03-20T13:29:45.940Z,55.20
2019-03-20T13:32:15.636Z,55.20
2019-03-20T13:34:45.362Z,55.10
2019-03-20T13:37:15.744Z,55.10
2019-03-20T13:39:45.828Z,55.10
2019-03-20T13:42:15.728Z,55.00
2019-03-20T13:44:45.974Z,54.90
2019-03-20T13:47:16.050Z,55.00
2019-03-20T13:49:45.959Z,55.00
2019-03-20T13:52:16.065Z,54.80
2019-03-20T13:54:46.067Z,54.90
2019-03-20T13:57:15.706Z,54.90
2019-03-20T13:59:45.690Z,54.60
2019-03-20T14:02:15.812Z,54.40
2019-03-20T14:04:45.706Z,54.50
2019-03-20T14:07:15.719Z,54.30
2019-03-20T14:09:45.718Z,54.10
2019-03-20T14:12:15.474Z,53.90
2019-03-20T14:14:45.178Z,53.80
2019-03-20T14:17:14.825Z,53.70
2019-03-20T14:19:44.444Z,53.40
2019-03-20T14:22:14.324Z,53.50
2019-03-20T14:24:43.937Z,53.40
2019-03-20T14:27:13.643Z,53.40
2019-03-20T14:29:43.561Z,53.30
2019-03-20T14:32:13.262Z,53.30
2019-03-20T14:34:42.944Z,53.30
2019-03-20T14:37:12.633Z,53.10
2019-03-20T14:39:42.585Z,52.90
2019-03-20T14:42:12.266Z,52.70
2019-03-20T14:44:41.928Z,52.50
2019-03-20T14:47:11.724Z,52.40
2019-03-20T14:49:41.439Z,52.30
2019-03-20T14:52:11.121Z,52.40
2019-03-20T14:54:40.812Z,52.40
2019-03-20T14:57:10.521Z,52.40
2019-03-20T14:59:40.173Z,52.20
2019-03-20T15:02:09.891Z,52.30
2019-03-20T15:04:39.669Z,52.20
2019-03-20T15:07:09.776Z,52.20
2019-03-20T15:09:39.683Z,52.20
2019-03-20T15:12:09.593Z,52.40
2019-03-20T15:14:40.480Z,52.30
2019-03-20T15:17:11.183Z,52.30
2019-03-20T15:19:40.951Z,52.20
2019-03-20T15:22:10.744Z,52.10
2019-03-20T15:24:41.506Z,52.10
2019-03-20T15:27:11.161Z,52.00
2019-03-20T15:29:41.025Z,52.10
2019-03-20T15:32:12.203Z,52.30
2019-03-20T15:34:42.023Z,52.50
2019-03-20T15:37:11.767Z,52.40
2019-03-20T15:39:41.428Z,52.50
2019-03-20T15:42:11.378Z,52.40
2019-03-20T15:44:41.100Z,52.50
2019-03-20T15:47:14.628Z,52.40
2019-03-20T15:49:44.466Z,52.50
2019-03-20T15:52:14.542Z,52.60
2019-03-20T15:54:44.298Z,52.70
2019-03-20T15:57:14.068Z,52.90
2019-03-20T15:59:43.810Z,53.10
2019-03-20T16:02:13.534Z,53.00
2019-03-20T16:04:43.272Z,53.10
2019-03-20T16:07:13.761Z,53.20
2019-03-20T16:09:43.548Z,53.30
2019-03-20T16:12:13.375Z,53.40
2019-03-20T16:14:43.209Z,53.40
2019-03-20T16:17:13.016Z,53.60
2019-03-20T16:19:42.926Z,53.70
2019-03-20T16:22:12.990Z,53.90
2019-03-20T16:24:47.650Z,53.90
2019-03-20T16:27:17.595Z,53.90
2019-03-20T16:29:48.170Z,54.00
2019-03-20T16:32:17.955Z,54.20
2019-03-20T16:34:47.795Z,54.30
2019-03-20T16:37:17.654Z,54.40
2019-03-20T16:39:47.698Z,54.50
2019-03-20T16:42:17.306Z,54.60
2019-03-20T16:44:47.075Z,54.70
2019-03-20T16:47:17.055Z,54.60
2019-03-20T16:49:46.675Z,54.70
2019-03-20T16:52:16.348Z,54.80
2019-03-20T16:54:46.348Z,54.90
2019-03-20T16:57:16.018Z,55.10
2019-03-20T16:59:45.724Z,55.30
2019-03-20T17:02:15.553Z,55.50
2019-03-20T17:04:45.162Z,55.70
2019-03-20T17:07:14.787Z,55.90
2019-03-20T17:09:44.478Z,56.10
2019-03-20T17:12:14.201Z,56.30
2019-03-20T17:14:44.144Z,56.40
2019-03-20T17:17:13.774Z,56.40
2019-03-20T17:19:43.449Z,56.40
2019-03-20T17:22:13.095Z,56.50
2019-03-20T17:24:42.799Z,56.70
2019-03-20T17:27:12.525Z,56.90
2019-03-20T17:29:42.165Z,57.00
2019-03-20T17:32:11.792Z,57.20
2019-03-20T17:34:41.712Z,57.30
2019-03-20T17:37:11.705Z,57.50
2019-03-20T17:39:41.443Z,57.50
2019-03-20T17:42:11.100Z,57.60
2019-03-20T17:44:40.764Z,57.70
2019-03-20T17:47:10.394Z,57.90
2019-03-20T17:49:40.020Z,58.10
2019-03-20T17:52:09.738Z,58.10
2019-03-20T17:54:39.385Z,58.20
2019-03-20T17:57:09.032Z,58.40
2019-03-20T17:59:38.687Z,58.60
2019-03-20T18:02:08.348Z,58.70
2019-03-20T18:04:38.052Z,58.80
2019-03-20T18:07:07.669Z,59.00
2019-03-20T18:09:37.389Z,59.10
2019-03-20T18:12:07.016Z,59.20
2019-03-20T18:14:36.666Z,59.40
2019-03-20T18:17:06.891Z,59.60
2019-03-20T18:19:36.509Z,59.70
2019-03-20T18:22:06.163Z,59.80
2019-03-20T18:24:35.986Z,59.80
2019-03-20T18:27:05.854Z,59.90
2019-03-20T18:29:35.527Z,60.00
2019-03-20T18:32:05.332Z,60.00
2019-03-20T18:34:34.970Z,60.40
2019-03-20T18:37:04.591Z,61.20
2019-03-20T18:39:34.204Z,60.60
2019-03-20T18:42:03.863Z,60.70
2019-03-20T18:44:33.471Z,61.00
2019-03-20T18:47:03.236Z,61.10
2019-03-20T18:49:32.874Z,61.20
2019-03-20T18:52:02.811Z,61.30
2019-03-20T18:54:32.562Z,61.40
2019-03-20T18:57:02.234Z,61.60
2019-03-20T18:59:31.883Z,61.50
2019-03-20T19:02:01.566Z,61.60
2019-03-20T19:04:31.591Z,61.80
2019-03-20T19:07:01.333Z,61.70
2019-03-20T19:09:31.054Z,61.80
2019-03-20T19:12:08.226Z,61.80
2019-03-20T19:14:32.146Z,62.00
2019-03-20T19:17:01.791Z,62.00
2019-03-20T19:19:31.440Z,62.00
2019-03-20T19:22:01.087Z,62.00
2019-03-20T19:24:30.764Z,62.00
2019-03-20T19:27:00.424Z,62.10
2019-03-20T19:29:30.070Z,62.10
2019-03-20T19:31:59.794Z,62.20
2019-03-20T19:34:29.460Z,62.20
2019-03-20T19:36:59.127Z,62.20
2019-03-20T19:39:28.745Z,62.10
2019-03-20T19:41:58.445Z,62.40
2019-03-20T19:44:28.152Z,62.40
2019-03-20T19:46:57.783Z,62.50
2019-03-20T19:49:27.433Z,62.70
2019-03-20T19:51:57.082Z,62.80
2019-03-20T19:54:26.773Z,62.90
2019-03-20T19:56:56.420Z,63.10
2019-03-20T19:59:26.067Z,63.10
2019-03-20T20:01:55.972Z,63.20
2019-03-20T20:04:25.612Z,63.30
2019-03-20T20:06:55.279Z,63.50
2019-03-20T20:09:25.362Z,63.60
2019-03-20T20:11:55.078Z,63.70
2019-03-20T20:14:24.766Z,63.90
2019-03-20T20:16:54.478Z,63.90
2019-03-20T20:19:24.865Z,64.00
2019-03-20T20:21:54.553Z,64.10
2019-03-20T20:24:24.607Z,63.90
2019-03-20T20:26:54.530Z,64.10
2019-03-20T20:29:25.236Z,64.10
2019-03-20T20:31:55.233Z,64.00
2019-03-20T20:34:24.993Z,64.10
2019-03-20T20:36:55.084Z,64.20
2019-03-20T20:39:24.841Z,64.10
2019-03-20T20:41:54.528Z,64.10
2019-03-20T20:44:24.216Z,64.20
2019-03-20T20:46:53.816Z,64.10
2019-03-20T20:49:23.803Z,64.00
2019-03-20T20:51:55.186Z,64.10
2019-03-20T20:54:27.621Z,64.10
2019-03-20T20:56:57.248Z,63.90
2019-03-20T20:59:26.928Z,63.80
2019-03-20T21:01:56.685Z,63.80
2019-03-20T21:04:26.372Z,63.80
2019-03-20T21:06:56.992Z,63.70
2019-03-20T21:09:26.734Z,63.60
2019-03-20T21:11:56.445Z,63.70
2019-03-20T21:14:26.194Z,63.60
2019-03-20T21:16:55.963Z,63.60
2019-03-20T21:19:38.179Z,63.60
2019-03-20T21:22:36.639Z,63.60
2019-03-20T21:25:07.579Z,63.50
2019-03-20T21:28:33.411Z,63.50
2019-03-20T21:31:08.162Z,63.60
2019-03-20T21:34:10.588Z,63.50
2019-03-20T21:36:48.024Z,63.50
2019-03-20T21:39:17.919Z,63.50
2019-03-20T21:42:14.879Z,63.50
2019-03-20T21:45:04.032Z,63.60
2019-03-20T21:47:35.711Z,63.50
2019-03-20T21:50:42.471Z,63.50
2019-03-20T21:53:41.991Z,63.50
2019-03-20T21:56:44.641Z,63.40
2019-03-20T21:59:44.272Z,63.40
2019-03-20T22:02:43.448Z,63.20
2019-03-20T22:05:29.378Z,63.20
2019-03-20T22:07:58.974Z,63.20
2019-03-20T22:10:38.598Z,63.30
2019-03-20T22:13:24.204Z,63.50
2019-03-20T22:16:14.809Z,63.60
2019-03-20T22:19:25.007Z,63.60
2019-03-20T22:22:38.357Z,63.70
2019-03-20T22:25:47.050Z,63.80
2019-03-20T22:28:44.682Z,63.90
2019-03-20T22:31:14.357Z,64.10
2019-03-20T22:34:24.730Z,64.40
2019-03-20T22:36:55.048Z,64.60
2019-03-20T22:40:13.651Z,64.60
2019-03-20T22:42:59.897Z,65.00
2019-03-20T22:46:16.445Z,65.00
2019-03-20T22:49:28.583Z,65.20
2019-03-20T22:52:11.441Z,65.20
2019-03-20T22:55:18.340Z,65.30
2019-03-20T22:58:23.669Z,65.30
2019-03-20T23:01:01.487Z,65.50
2019-03-20T23:03:50.862Z,65.70
2019-03-20T23:06:20.649Z,65.80
2019-03-20T23:08:50.298Z,66.10
2019-03-20T23:11:19.952Z,66.30
2019-03-20T23:13:49.576Z,66.60
2019-03-20T23:16:21.619Z,66.70
2019-03-20T23:18:51.345Z,66.90
2019-03-20T23:21:21.000Z,67.00
2019-03-20T23:23:50.651Z,67.00
2019-03-20T23:26:20.337Z,67.00
2019-03-20T23:28:50.066Z,67.10
2019-03-20T23:31:19.991Z,67.00
2019-03-20T23:33:49.872Z,67.00
2019-03-20T23:36:19.520Z,67.20
2019-03-20T23:38:49.259Z,67.10
2019-03-20T23:41:18.989Z,67.10
2019-03-20T23:43:52.814Z,67.20
2019-03-20T23:46:19.987Z,67.30
2019-03-20T23:48:54.211Z,67.30
2019-03-20T23:51:33.118Z,67.40
2019-03-20T23:54:02.999Z,67.60
2019-03-20T23:56:37.746Z,67.70
2019-03-20T23:59:07.895Z,67.80
